Weather at Austin Bergstrom International Airport

Public forecast

Using degrees Fahrenheit for public forecast. Weather courtesy of forecast.io.

Current aviation weather report (METAR) for Austin Bergstrom International Airport

Retrieved 2021/03/02 17:53 UTC (1 hour ago):

KAUS 021753Z 02013KT 10SM FEW110 16/00 A3026 RMK AO2 SLP246 T01560000 10161 20067 58013

Aviation forecast (TAF) for Austin Bergstrom International Airport

Retrieved 2021/03/02 18:28 UTC (36 minutes ago):

TAF KAUS 021725Z 0218/0324 01010G20KT P6SM FEW110 FM022100 02008KT P6SM SKC FM030100 05004KT P6SM FEW250 FM031800 16004KT P6SM FEW250